Time;durP1;ratioP1;P1;durP2;ratioP2;P2;SDS_P1;SDS_P2;PMS_P1;PMS_P2;Temp;Humidity;BMP_temperature;BMP_pressure;BME280_temperature;BME280_humidity;BME280_pressure;Samples;Min_cycle;Max_cycle;Signal;HPM_P1;HPM_P2
2021/08/12 00:01:21;;;;;;;0.38;0.30;;;;;;;13.75;93.93;101475.66;5029793;28;20048;-86
2021/08/12 00:03:54;;;;;;;0.30;0.30;;;;;;;13.84;93.90;101484.06;5020189;28;20060;-86
2021/08/12 00:06:27;;;;;;;0.47;0.30;;;;;;;13.72;95.14;101470.72;5025889;28;20060;-86
2021/08/12 00:09:02;;;;;;;0.30;0.30;;;;;;;13.72;94.45;101478.94;5025870;28;20071;-86
2021/08/12 00:11:30;;;;;;;0.32;0.32;;;;;;;13.67;95.47;101476.25;5027489;28;20053;-86
2021/08/12 00:14:03;;;;;;;0.30;0.30;;;;;;;13.68;95.11;101477.84;5026354;28;20049;-84
2021/08/12 00:16:33;;;;;;;0.40;0.22;;;;;;;13.68;95.64;101483.31;5028930;28;20057;-86
2021/08/12 00:19:12;;;;;;;0.30;0.30;;;;;;;13.64;95.95;101478.72;5026509;28;20053;-86
2021/08/12 00:21:45;;;;;;;0.30;0.30;;;;;;;13.60;95.79;101472.97;5029610;28;20052;-87
2021/08/12 00:24:21;;;;;;;0.20;0.20;;;;;;;13.61;95.50;101471.88;5029944;28;20049;-86
2021/08/12 00:26:56;;;;;;;0.63;0.30;;;;;;;13.59;96.17;101483.09;5023680;28;20041;-86
2021/08/12 00:29:31;;;;;;;0.30;0.30;;;;;;;13.58;96.47;101477.91;5027403;28;20042;-86
2021/08/12 00:32:06;;;;;;;0.30;0.30;;;;;;;13.65;97.13;101472.16;5024606;28;20414;-86
2021/08/12 00:34:40;;;;;;;0.30;0.30;;;;;;;13.59;97.37;101468.63;5024006;28;20046;-86
2021/08/12 00:37:13;;;;;;;0.40;0.40;;;;;;;13.59;95.82;101469.44;5019288;28;20053;-87
2021/08/12 00:39:47;;;;;;;0.43;0.32;;;;;;;13.59;96.76;101469.44;5019912;28;20046;-87
2021/08/12 00:42:22;;;;;;;0.43;0.30;;;;;;;13.57;96.75;101457.94;5021612;28;20065;-87
2021/08/12 00:44:51;;;;;;;0.30;0.30;;;;;;;13.55;97.41;101462.09;5030755;28;20045;-87
2021/08/12 00:47:26;;;;;;;0.50;0.40;;;;;;;13.59;96.72;101466.69;5024848;28;20053;-86
2021/08/12 00:49:59;;;;;;;0.30;0.30;;;;;;;13.58;96.18;101469.72;5024406;28;20048;-88
2021/08/12 00:52:33;;;;;;;0.30;0.30;;;;;;;13.58;96.33;101473.25;5017342;28;20053;-87
2021/08/12 00:55:02;;;;;;;0.30;0.30;;;;;;;13.57;97.08;101465.34;5025204;28;20050;-86
2021/08/12 00:57:37;;;;;;;0.30;0.30;;;;;;;13.58;97.12;101470.53;5030169;28;20490;-85
2021/08/12 01:00:12;;;;;;;0.38;0.30;;;;;;;13.57;97.25;101470.81;5020140;28;20513;-85
2021/08/12 01:02:42;;;;;;;0.40;0.40;;;;;;;13.49;96.31;101457.72;5018410;28;20048;-86
2021/08/12 01:05:18;;;;;;;0.35;0.35;;;;;;;13.59;96.80;101474.09;5028043;28;20057;-86
2021/08/12 01:07:59;;;;;;;0.30;0.30;;;;;;;13.51;96.11;101461.81;5021427;28;20053;-86
2021/08/12 01:10:45;;;;;;;0.65;0.40;;;;;;;13.53;96.66;101458.78;5023840;28;20038;-86
2021/08/12 01:13:33;;;;;;;0.40;0.40;;;;;;;13.51;97.12;101474.69;5026774;28;20518;-86
2021/08/12 01:16:10;;;;;;;0.43;0.43;;;;;;;13.50;96.50;101468.38;5025084;28;20525;-87
2021/08/12 01:18:46;;;;;;;0.30;0.30;;;;;;;13.47;96.05;101466.19;5028190;28;20509;-85
2021/08/12 01:21:50;;;;;;;0.63;0.50;;;;;;;13.44;97.29;101472.25;5032804;28;20046;-86
2021/08/12 01:24:26;;;;;;;0.30;0.30;;;;;;;13.40;97.80;101476.63;5021836;28;20052;-87
2021/08/12 01:27:03;;;;;;;0.30;0.30;;;;;;;13.42;96.61;101474.41;5030368;28;20421;-87
2021/08/12 01:29:50;;;;;;;0.37;0.37;;;;;;;13.39;97.22;101467.59;5031374;28;20056;-87
2021/08/12 01:32:26;;;;;;;0.30;0.30;;;;;;;13.34;96.89;101472.22;5024863;28;20053;-86
2021/08/12 01:35:05;;;;;;;0.40;0.30;;;;;;;13.34;96.68;101464.88;5030735;28;20068;-86
2021/08/12 01:37:46;;;;;;;0.30;0.30;;;;;;;13.34;95.99;101466.75;5034519;28;20049;-87
2021/08/12 01:40:21;;;;;;;0.40;0.40;;;;;;;13.32;97.39;101471.72;5024565;28;20054;-87
2021/08/12 01:42:57;;;;;;;0.25;0.25;;;;;;;13.29;96.88;101470.34;5014029;28;20054;-87
2021/08/12 01:45:31;;;;;;;0.30;0.30;;;;;;;13.26;96.70;101460.78;5026087;28;20533;-86
2021/08/12 01:48:09;;;;;;;0.37;0.37;;;;;;;13.28;97.08;101465.97;5033985;28;20060;-86
2021/08/12 01:50:45;;;;;;;0.22;0.22;;;;;;;13.27;97.09;101467.06;5030458;28;20297;-86
2021/08/12 01:53:14;;;;;;;0.40;0.40;;;;;;;13.24;96.80;101470.34;5013934;28;20054;-86
2021/08/12 01:55:43;;;;;;;0.30;0.30;;;;;;;13.22;96.52;101470.63;5032163;28;20058;-86
2021/08/12 01:58:18;;;;;;;0.40;0.40;;;;;;;13.19;97.08;101467.66;5028118;28;20081;-86
2021/08/12 02:00:54;;;;;;;0.75;0.38;;;;;;;13.16;98.17;101471.75;5028550;28;20045;-85
2021/08/12 02:03:23;;;;;;;0.40;0.40;;;;;;;13.17;98.42;101469.84;5030386;28;20041;-85
2021/08/12 02:06:00;;;;;;;0.40;0.40;;;;;;;13.09;97.86;101463.84;5020626;28;20517;-86
2021/08/12 02:08:34;;;;;;;0.45;0.40;;;;;;;13.08;98.96;101464.13;5029978;28;20049;-85
2021/08/12 02:11:08;;;;;;;0.45;0.45;;;;;;;13.07;98.39;101454.28;5030156;28;20061;-86
2021/08/12 02:13:42;;;;;;;0.40;0.40;;;;;;;13.07;99.63;101452.38;5027547;28;20049;-86
2021/08/12 02:16:15;;;;;;;0.35;0.35;;;;;;;13.08;99.05;101456.75;5026946;28;20438;-86
2021/08/12 02:18:48;;;;;;;0.50;0.50;;;;;;;13.09;99.88;101449.34;5030322;28;20050;-86
2021/08/12 02:21:38;;;;;;;0.40;0.40;;;;;;;13.09;98.19;101452.91;5014337;28;20466;-86
2021/08/12 02:24:17;;;;;;;0.40;0.40;;;;;;;13.10;99.43;101451.00;5026162;28;20050;-86
2021/08/12 02:26:56;;;;;;;0.82;0.52;;;;;;;13.03;99.51;101442.28;5019831;28;20524;-85
2021/08/12 02:29:29;;;;;;;0.80;0.47;;;;;;;13.04;99.48;101446.66;5028677;28;20092;-86
2021/08/12 02:32:07;;;;;;;0.40;0.40;;;;;;;13.02;99.46;101435.16;5024171;28;20053;-86
2021/08/12 02:34:42;;;;;;;0.50;0.50;;;;;;;13.08;99.85;101443.06;5024732;28;20049;-86
2021/08/12 02:37:19;;;;;;;0.70;0.50;;;;;;;13.12;100.00;101450.72;5028322;28;20053;-86
2021/08/12 02:39:53;;;;;;;0.40;0.40;;;;;;;13.08;100.00;101439.53;5025043;28;20413;-86
2021/08/12 02:42:27;;;;;;;0.43;0.40;;;;;;;13.06;100.00;101455.38;5031166;28;20524;-86
2021/08/12 02:45:01;;;;;;;0.40;0.40;;;;;;;13.10;100.00;101443.63;5027844;28;20068;-85
2021/08/12 02:47:36;;;;;;;0.50;0.50;;;;;;;13.23;100.00;101446.84;5029601;28;20056;-86
2021/08/12 02:50:06;;;;;;;0.40;0.40;;;;;;;13.15;100.00;101444.72;5029143;28;20053;-85
2021/08/12 02:52:39;;;;;;;0.35;0.35;;;;;;;13.17;100.00;101454.25;5018001;28;20053;-86
2021/08/12 02:55:13;;;;;;;0.50;0.40;;;;;;;13.15;100.00;101440.06;5037597;28;20057;-85
2021/08/12 02:57:47;;;;;;;0.30;0.30;;;;;;;13.21;100.00;101454.53;5029424;28;20060;-86
2021/08/12 03:00:22;;;;;;;0.45;0.45;;;;;;;13.25;100.00;101456.41;5026547;28;20045;-86
2021/08/12 03:02:57;;;;;;;0.30;0.30;;;;;;;13.24;100.00;101460.25;5031353;28;20105;-86
2021/08/12 03:05:33;;;;;;;0.40;0.40;;;;;;;13.19;99.94;101445.78;5030710;28;20053;-86
2021/08/12 03:08:12;;;;;;;0.40;0.33;;;;;;;13.26;99.15;101455.31;5031660;28;20056;-85
2021/08/12 03:10:41;;;;;;;0.40;0.40;;;;;;;13.18;100.00;101441.41;5031164;28;20304;-85
2021/08/12 03:13:16;;;;;;;0.40;0.40;;;;;;;13.25;100.00;101447.41;5027279;28;20065;-86
2021/08/12 03:15:50;;;;;;;0.40;0.30;;;;;;;13.27;100.00;101459.69;5023260;28;20258;-87
2021/08/12 03:18:18;;;;;;;0.30;0.30;;;;;;;13.22;99.94;101446.03;5025855;28;20048;-86
2021/08/12 03:20:51;;;;;;;0.50;0.45;;;;;;;13.29;99.52;101455.88;5031459;28;20403;-86
2021/08/12 03:23:27;;;;;;;0.40;0.40;;;;;;;13.30;99.52;101452.00;5032112;28;20049;-86
2021/08/12 03:26:01;;;;;;;0.40;0.40;;;;;;;13.27;99.85;101450.66;5018078;28;20060;-86
2021/08/12 03:28:35;;;;;;;0.50;0.50;;;;;;;13.27;100.00;101453.38;5029463;28;20414;-86
2021/08/12 03:31:08;;;;;;;0.40;0.40;;;;;;;13.25;100.00;101461.88;5023904;28;20049;-86
2021/08/12 03:33:37;;;;;;;0.30;0.30;;;;;;;13.24;100.00;101459.41;5024986;28;20046;-87
2021/08/12 03:36:10;;;;;;;0.43;0.40;;;;;;;13.23;100.00;101466.81;5021030;28;20049;-86
2021/08/12 03:38:45;;;;;;;0.45;0.30;;;;;;;13.24;100.00;101463.00;5029492;28;20061;-86
2021/08/12 03:41:18;;;;;;;0.40;0.40;;;;;;;13.28;99.90;101463.22;5020095;28;20077;-86
2021/08/12 03:43:52;;;;;;;0.40;0.40;;;;;;;13.24;100.00;101456.69;5026643;28;20049;-87
2021/08/12 03:46:25;;;;;;;0.77;0.40;;;;;;;13.28;99.36;101468.69;5017769;28;20052;-86
2021/08/12 03:49:00;;;;;;;0.47;0.47;;;;;;;13.33;98.59;101468.69;5024919;28;20052;-85
2021/08/12 03:51:34;;;;;;;0.40;0.40;;;;;;;13.34;98.11;101473.06;5032290;28;20054;-87
2021/08/12 03:54:04;;;;;;;0.40;0.40;;;;;;;13.29;97.77;101455.88;5036921;28;20068;-87
2021/08/12 03:56:33;;;;;;;0.40;0.40;;;;;;;13.30;98.29;101460.22;5016503;28;20061;-86
2021/08/12 03:59:06;;;;;;;0.40;0.40;;;;;;;13.30;99.14;101474.72;5026441;28;20494;-86
2021/08/12 04:01:39;;;;;;;0.30;0.30;;;;;;;13.27;99.31;101475.25;5016538;28;20050;-87
2021/08/12 04:04:12;;;;;;;0.35;0.35;;;;;;;13.24;98.52;101473.94;5011727;28;20050;-87
2021/08/12 04:06:46;;;;;;;0.57;0.40;;;;;;;13.21;98.68;101484.59;5023361;28;20060;-87
2021/08/12 04:09:22;;;;;;;0.40;0.40;;;;;;;13.25;99.04;101480.19;5026715;28;20053;-86
2021/08/12 04:11:56;;;;;;;0.30;0.30;;;;;;;13.20;99.08;101474.75;5022076;28;20060;-87
2021/08/12 04:14:30;;;;;;;0.40;0.40;;;;;;;13.19;98.98;101476.66;5019738;28;20065;-86
2021/08/12 04:17:03;;;;;;;0.57;0.47;;;;;;;13.22;99.95;101487.03;5022770;28;20371;-87
2021/08/12 04:19:37;;;;;;;0.40;0.40;;;;;;;13.24;100.00;101476.66;5011839;28;20053;-86
2021/08/12 04:22:11;;;;;;;0.50;0.50;;;;;;;13.29;99.91;101478.53;5013760;28;20050;-87
2021/08/12 04:24:46;;;;;;;0.47;0.43;;;;;;;13.33;99.14;101470.63;5019840;28;20042;-87
2021/08/12 04:27:20;;;;;;;0.30;0.30;;;;;;;13.44;99.34;101483.97;5019400;28;20053;-86
2021/08/12 04:29:53;;;;;;;0.40;0.40;;;;;;;13.41;99.01;101479.09;5017042;28;20046;-87
2021/08/12 04:32:27;;;;;;;0.40;0.40;;;;;;;13.39;99.20;101473.06;5036336;28;20050;-87
2021/08/12 04:35:01;;;;;;;0.40;0.40;;;;;;;13.37;99.62;101475.28;5018785;28;20037;-86
2021/08/12 04:37:36;;;;;;;0.40;0.38;;;;;;;13.40;99.26;101473.91;5030875;28;20053;-87
2021/08/12 04:40:14;;;;;;;0.40;0.40;;;;;;;13.41;99.86;101475.53;5023928;28;20045;-86
2021/08/12 04:42:50;;;;;;;0.30;0.30;;;;;;;13.44;99.34;101478.50;5016619;28;20046;-86
2021/08/12 04:45:24;;;;;;;0.30;0.30;;;;;;;13.48;98.91;101477.94;5017985;28;20045;-87
2021/08/12 04:48:00;;;;;;;0.40;0.40;;;;;;;13.54;99.26;101479.56;5022196;28;20046;-85
2021/08/12 04:50:37;;;;;;;0.75;0.43;;;;;;;13.59;98.30;101474.91;5033872;28;20046;-86
2021/08/12 04:53:11;;;;;;;1.08;0.40;;;;;;;13.60;98.19;101478.44;5026156;28;20045;-86
2021/08/12 04:55:45;;;;;;;0.40;0.40;;;;;;;13.68;97.82;101482.53;5021349;28;20058;-86
2021/08/12 04:58:13;;;;;;;0.50;0.50;;;;;;;13.71;97.35;101473.75;5021564;28;20522;-87
2021/08/12 05:00:47;;;;;;;0.40;0.40;;;;;;;13.71;98.01;101471.00;5030111;28;20070;-86
2021/08/12 05:03:16;;;;;;;0.40;0.40;;;;;;;13.75;96.90;101472.91;5027608;28;20045;-86
2021/08/12 05:05:49;;;;;;;0.43;0.43;;;;;;;13.80;97.51;101477.53;5025377;28;20053;-85
2021/08/12 05:08:24;;;;;;;0.50;0.50;;;;;;;13.81;97.86;101486.56;5038503;28;20046;-86
2021/08/12 05:10:59;;;;;;;0.40;0.40;;;;;;;13.86;97.71;101492.00;5024244;28;20513;-86
2021/08/12 05:13:32;;;;;;;0.30;0.30;;;;;;;13.91;97.86;101489.25;5030632;28;20048;-87
2021/08/12 05:16:08;;;;;;;0.40;0.40;;;;;;;13.96;97.89;101480.97;5032535;28;20064;-87
2021/08/12 05:18:43;;;;;;;0.30;0.30;;;;;;;14.09;97.80;101496.78;5023018;28;20049;-86
2021/08/12 05:21:16;;;;;;;0.30;0.30;;;;;;;14.20;97.64;101494.81;5025173;28;20042;-85
2021/08/12 05:23:49;;;;;;;0.30;0.30;;;;;;;14.43;96.49;101490.53;5025807;28;20046;-85
2021/08/12 05:26:24;;;;;;;0.30;0.30;;;;;;;14.67;95.90;101478.03;5021141;28;20072;-86
2021/08/12 05:28:58;;;;;;;0.32;0.32;;;;;;;14.95;94.98;101488.16;5024960;28;20048;-85
2021/08/12 05:31:31;;;;;;;0.40;0.40;;;;;;;15.14;93.98;101485.50;5029634;28;20421;-85
2021/08/12 05:34:05;;;;;;;0.68;0.30;;;;;;;15.03;93.43;101486.72;5021070;28;20053;-87
2021/08/12 05:36:38;;;;;;;0.30;0.30;;;;;;;15.05;94.07;101484.53;5021212;28;20068;-86
2021/08/12 05:39:11;;;;;;;0.30;0.30;;;;;;;15.11;93.88;101488.81;5034814;28;20064;-85
2021/08/12 05:41:45;;;;;;;0.30;0.30;;;;;;;15.08;92.10;101488.56;5017052;28;20419;-85
2021/08/12 05:44:14;;;;;;;0.30;0.30;;;;;;;15.00;93.08;101486.47;5027301;28;20084;-84
2021/08/12 05:46:48;;;;;;;0.38;0.30;;;;;;;14.97;95.25;101485.16;5027102;28;20489;-85
2021/08/12 05:49:23;;;;;;;0.40;0.40;;;;;;;14.98;93.91;101485.97;5024123;28;20057;-86
2021/08/12 05:51:52;;;;;;;0.30;0.30;;;;;;;14.96;92.96;101487.06;5029317;28;20054;-86
2021/08/12 05:54:26;;;;;;;0.35;0.35;;;;;;;14.91;94.18;101484.34;5033590;28;20041;-86
2021/08/12 05:56:56;;;;;;;0.30;0.30;;;;;;;14.84;93.57;101486.63;5026366;28;20379;-86
2021/08/12 05:59:29;;;;;;;0.30;0.30;;;;;;;14.75;93.72;101480.16;5023198;28;20064;-86
2021/08/12 06:01:58;;;;;;;0.40;0.40;;;;;;;14.70;95.27;101480.19;5025754;28;20049;-85
2021/08/12 06:04:36;;;;;;;0.40;0.40;;;;;;;14.71;94.46;101485.38;5013852;28;20057;-86
2021/08/12 06:07:12;;;;;;;0.40;0.40;;;;;;;14.71;94.54;101481.84;5023986;28;20053;-86
2021/08/12 06:09:47;;;;;;;0.40;0.40;;;;;;;14.70;92.96;101466.50;5028498;28;20060;-84
2021/08/12 06:12:22;;;;;;;0.30;0.30;;;;;;;14.74;93.29;101467.56;5027054;28;20054;-85
2021/08/12 06:14:56;;;;;;;0.40;0.40;;;;;;;14.87;92.90;101477.81;5019144;28;20052;-85
2021/08/12 06:17:36;;;;;;;0.40;0.40;;;;;;;14.93;93.13;101476.69;5023250;28;20052;-86
2021/08/12 06:20:11;;;;;;;0.40;0.40;;;;;;;15.07;92.61;101476.00;5029972;28;20057;-85
2021/08/12 06:22:45;;;;;;;0.40;0.40;;;;;;;15.25;91.12;101464.25;5027915;28;20518;-86
2021/08/12 06:25:18;;;;;;;0.40;0.40;;;;;;;15.38;91.28;101461.94;5025382;28;20052;-86
2021/08/12 06:27:54;;;;;;;0.30;0.30;;;;;;;15.60;91.29;101469.59;5024995;28;20069;-86
2021/08/12 06:30:22;;;;;;;0.40;0.40;;;;;;;15.71;89.99;101468.34;5027627;28;20082;-85
2021/08/12 06:32:56;;;;;;;0.40;0.40;;;;;;;15.79;90.01;101462.22;5036969;28;20491;-85
2021/08/12 06:35:31;;;;;;;0.30;0.30;;;;;;;15.99;86.41;101465.78;5022800;28;20041;-85
2021/08/12 06:38:07;;;;;;;0.38;0.38;;;;;;;16.29;90.39;101470.00;5015470;28;20372;-86
2021/08/12 06:40:41;;;;;;;0.38;0.30;;;;;;;16.31;86.90;101461.47;5017135;28;20120;-86
2021/08/12 06:43:16;;;;;;;0.30;0.30;;;;;;;16.28;87.84;101456.56;5024092;28;20050;-86
2021/08/12 06:46:00;;;;;;;0.30;0.30;;;;;;;16.41;86.82;101457.75;5005977;28;20069;-85
2021/08/12 06:48:41;;;;;;;0.40;0.40;;;;;;;16.64;86.27;101464.19;5005896;28;20058;-85
2021/08/12 06:51:18;;;;;;;0.30;0.30;;;;;;;16.80;86.67;101468.31;5008705;28;20057;-84
2021/08/12 06:53:51;;;;;;;0.60;0.40;;;;;;;16.91;86.44;101452.47;5017757;28;20054;-86
2021/08/12 06:56:25;;;;;;;0.30;0.30;;;;;;;17.05;86.21;101451.66;5015281;28;20065;-86
2021/08/12 06:58:59;;;;;;;0.30;0.30;;;;;;;17.25;83.32;101459.53;5012465;28;20685;-84
2021/08/12 07:01:32;;;;;;;0.32;0.32;;;;;;;17.40;84.00;101458.41;5009014;28;20065;-86
2021/08/12 07:04:07;;;;;;;0.30;0.30;;;;;;;17.48;84.49;101463.19;5011844;28;20072;-86
2021/08/12 07:06:40;;;;;;;0.30;0.30;;;;;;;17.46;83.86;101442.59;5009211;28;20053;-86
2021/08/12 07:09:13;;;;;;;1.00;0.40;;;;;;;17.54;83.32;101444.63;5016794;28;20050;-86
2021/08/12 07:11:52;;;;;;;0.30;0.30;;;;;;;17.49;81.96;101456.53;5012594;28;20049;-86
2021/08/12 07:14:23;;;;;;;0.35;0.30;;;;;;;17.63;82.02;101464.75;5006635;28;20045;-86
2021/08/12 07:16:59;;;;;;;0.40;0.40;;;;;;;17.72;84.22;101464.03;5010294;28;20053;-86
2021/08/12 07:19:34;;;;;;;0.20;0.20;;;;;;;17.82;82.03;101469.31;5023669;28;20058;-85
2021/08/12 07:22:09;;;;;;;0.30;0.30;;;;;;;17.96;81.33;101470.13;5008351;28;20053;-85
2021/08/12 07:24:43;;;;;;;0.40;0.40;;;;;;;18.24;81.93;101475.53;5005699;28;20053;-85
2021/08/12 07:27:20;;;;;;;0.30;0.30;;;;;;;18.11;80.29;101473.66;5008796;28;20058;-86
2021/08/12 07:29:56;;;;;;;0.30;0.30;;;;;;;18.14;80.97;101471.06;5014136;28;20048;-86
2021/08/12 07:32:30;;;;;;;0.30;0.30;;;;;;;18.26;82.12;101467.78;5008612;28;20061;-85
2021/08/12 07:34:58;;;;;;;0.40;0.40;;;;;;;18.46;79.91;101469.22;5008758;28;20073;-85
2021/08/12 07:37:26;;;;;;;0.30;0.30;;;;;;;18.61;82.09;101459.72;5008555;28;20057;-85
2021/08/12 07:40:00;;;;;;;0.40;0.40;;;;;;;18.75;78.35;101476.19;5007365;28;20053;-85
2021/08/12 07:42:28;;;;;;;0.30;0.30;;;;;;;18.67;80.55;101471.44;5016466;28;20057;-85
2021/08/12 07:45:05;;;;;;;0.30;0.30;;;;;;;18.51;79.26;101471.03;5010493;28;20053;-86
2021/08/12 07:47:34;;;;;;;0.65;0.52;;;;;;;18.47;79.47;101467.28;4991831;28;20053;-85
2021/08/12 07:50:09;;;;;;;0.30;0.30;;;;;;;18.34;79.78;101467.03;5009929;28;20056;-85
2021/08/12 07:52:41;;;;;;;0.40;0.40;;;;;;;18.53;80.71;101466.00;5009298;28;20049;-84
2021/08/12 07:55:14;;;;;;;0.30;0.30;;;;;;;18.83;80.00;101469.91;5005416;28;20053;-84
2021/08/12 07:57:50;;;;;;;0.30;0.30;;;;;;;18.86;80.08;101465.69;5005967;28;20893;-86
2021/08/12 08:00:24;;;;;;;0.38;0.38;;;;;;;18.53;80.14;101453.06;5008537;28;20438;-85
2021/08/12 08:02:53;;;;;;;0.30;0.30;;;;;;;18.50;81.46;101456.41;5007391;28;20068;-84
2021/08/12 08:05:23;;;;;;;0.30;0.30;;;;;;;18.77;79.71;101456.59;5006530;28;20053;-85
2021/08/12 08:07:57;;;;;;;0.38;0.38;;;;;;;19.11;79.18;101455.13;5016674;28;20049;-85
2021/08/12 08:10:30;;;;;;;0.32;0.30;;;;;;;19.42;77.69;101445.97;5014751;28;20056;-85
2021/08/12 08:13:04;;;;;;;0.30;0.30;;;;;;;19.81;74.97;101439.53;5008612;28;20064;-85
2021/08/12 08:15:42;;;;;;;0.30;0.30;;;;;;;20.06;72.70;101445.41;5007772;28;20260;-82
2021/08/12 08:18:10;;;;;;;0.32;0.30;;;;;;;20.04;72.57;101442.16;5006984;28;21429;-84
2021/08/12 08:20:44;;;;;;;0.30;0.30;;;;;;;20.10;73.97;101451.91;5009428;28;20053;-84
2021/08/12 08:23:18;;;;;;;0.32;0.30;;;;;;;19.96;73.84;101438.25;5002937;28;20054;-81
2021/08/12 08:25:51;;;;;;;0.30;0.30;;;;;;;19.96;75.82;101443.78;5001471;28;20053;-81
2021/08/12 08:28:19;;;;;;;0.20;0.20;;;;;;;19.94;73.37;101437.78;5009526;28;20054;-84
2021/08/12 08:30:54;;;;;;;0.40;0.30;;;;;;;19.85;76.17;101443.28;5010358;28;20060;-84
2021/08/12 08:33:27;;;;;;;0.30;0.30;;;;;;;19.84;74.61;101452.69;5011560;28;20057;-86
2021/08/12 08:36:01;;;;;;;0.30;0.30;;;;;;;19.79;73.81;101452.84;5006866;28;20050;-84
2021/08/12 08:38:34;;;;;;;0.90;0.30;;;;;;;19.73;75.14;101450.56;5004025;28;20076;-84
2021/08/12 08:41:08;;;;;;;0.45;0.30;;;;;;;19.53;73.90;101455.56;5002664;28;20501;-84
2021/08/12 08:43:45;;;;;;;0.63;0.30;;;;;;;19.37;77.94;101464.31;5003157;28;20049;-84
2021/08/12 08:46:21;;;;;;;0.30;0.30;;;;;;;19.35;75.71;101452.78;4978039;28;20062;-84
2021/08/12 08:48:56;;;;;;;0.30;0.30;;;;;;;19.36;77.58;101459.09;5007184;28;20506;-84
2021/08/12 08:51:30;;;;;;;0.20;0.20;;;;;;;19.30;76.64;101458.44;5009202;28;20053;-84
2021/08/12 08:54:04;;;;;;;0.20;0.20;;;;;;;19.16;75.87;101457.75;5002546;28;20058;-83
2021/08/12 08:56:39;;;;;;;0.20;0.20;;;;;;;19.30;75.76;101461.19;5000665;28;20062;-84
2021/08/12 08:59:14;;;;;;;0.30;0.30;;;;;;;19.65;73.80;101460.44;5001486;28;20065;-84
2021/08/12 09:01:48;;;;;;;0.38;0.30;;;;;;;19.90;75.20;101453.38;5004257;28;20069;-84
2021/08/12 09:04:21;;;;;;;0.55;0.30;;;;;;;20.19;72.59;101454.66;5004916;28;21317;-84
2021/08/12 09:06:54;;;;;;;0.20;0.20;;;;;;;20.37;75.30;101450.72;5008191;28;20054;-84
2021/08/12 09:09:28;;;;;;;0.25;0.25;;;;;;;20.55;73.78;101442.41;5005218;28;20076;-84
2021/08/12 09:12:02;;;;;;;0.28;0.28;;;;;;;20.64;71.88;101445.94;5010938;28;20053;-84
2021/08/12 09:14:38;;;;;;;0.20;0.20;;;;;;;20.91;70.16;101457.78;5004266;28;20068;-85
2021/08/12 09:17:27;;;;;;;0.30;0.30;;;;;;;20.83;71.08;101444.78;5004395;28;20053;-85
2021/08/12 09:20:04;;;;;;;0.38;0.35;;;;;;;20.94;70.35;101453.53;5002842;28;20062;-84
2021/08/12 09:22:48;;;;;;;;;;;;;;;21.06;71.03;101442.59;5004849;28;20056;-84
2021/08/12 09:25:33;;;;;;;0.30;0.30;;;;;;;21.12;70.80;101445.97;5012829;28;20401;-84
2021/08/12 09:28:18;;;;;;;0.30;0.30;;;;;;;21.22;70.71;101443.59;5002617;28;20064;-84
2021/08/12 09:31:10;;;;;;;0.30;0.30;;;;;;;21.37;72.71;101444.19;5006403;28;20060;-85
2021/08/12 09:33:52;;;;;;;0.22;0.22;;;;;;;21.52;70.32;101438.09;5005182;28;20112;-84
2021/08/12 09:36:30;;;;;;;0.25;0.25;;;;;;;21.53;69.47;101427.81;5005774;28;20046;-85
2021/08/12 09:39:20;;;;;;;0.25;0.25;;;;;;;21.55;70.12;101440.19;5007057;28;20049;-85
2021/08/12 09:41:57;;;;;;;0.30;0.30;;;;;;;21.73;69.85;101440.06;5009971;28;20061;-84
2021/08/12 09:44:37;;;;;;;0.30;0.30;;;;;;;21.85;69.39;101436.56;5023379;28;20505;-85
2021/08/12 09:47:13;;;;;;;0.30;0.30;;;;;;;21.82;67.98;101426.13;4983055;28;20050;-84
2021/08/12 09:49:50;;;;;;;0.30;0.30;;;;;;;21.83;66.81;101430.53;5006709;28;20057;-85
2021/08/12 09:52:32;;;;;;;0.30;0.30;;;;;;;21.82;66.79;101424.19;5008347;28;20474;-84
2021/08/12 09:55:08;;;;;;;0.20;0.20;;;;;;;22.03;67.25;101434.44;5012472;28;20150;-85
2021/08/12 09:57:44;;;;;;;0.20;0.20;;;;;;;22.06;68.89;101425.44;5012458;28;20493;-85
2021/08/12 10:00:35;;;;;;;0.30;0.30;;;;;;;22.16;67.46;101433.34;5015485;28;20561;-84
2021/08/12 10:03:21;;;;;;;0.30;0.30;;;;;;;22.36;65.01;101445.56;5009714;28;20057;-86
2021/08/12 10:05:58;;;;;;;0.27;0.20;;;;;;;22.22;68.54;101429.22;5011524;28;20049;-86
2021/08/12 10:08:35;;;;;;;0.30;0.30;;;;;;;22.29;65.94;101431.44;5009424;28;20061;-85
2021/08/12 10:11:23;;;;;;;0.20;0.20;;;;;;;22.40;65.42;101426.31;5010079;28;20828;-86
2021/08/12 10:13:58;;;;;;;0.43;0.25;;;;;;;22.63;66.86;101432.22;5006489;28;20050;-86
2021/08/12 10:16:34;;;;;;;0.28;0.22;;;;;;;22.62;65.64;101427.03;5008640;28;20071;-84
2021/08/12 10:19:09;;;;;;;0.22;0.22;;;;;;;22.72;63.92;101432.13;5006391;28;20065;-86
2021/08/12 10:21:44;;;;;;;0.20;0.20;;;;;;;22.64;61.21;101433.06;5006631;28;20064;-85
2021/08/12 10:24:19;;;;;;;0.30;0.30;;;;;;;22.62;61.67;101422.31;5012916;28;20426;-86
2021/08/12 10:26:51;;;;;;;0.30;0.30;;;;;;;22.62;59.18;101427.84;5008335;28;20481;-85
2021/08/12 10:29:30;;;;;;;0.30;0.30;;;;;;;22.66;62.36;101417.69;5012068;28;20511;-86
2021/08/12 10:31:59;;;;;;;0.20;0.20;;;;;;;22.86;61.87;101420.69;5006574;28;20060;-86
2021/08/12 10:34:33;;;;;;;0.20;0.20;;;;;;;22.87;61.81;101413.97;5008750;28;20041;-86
2021/08/12 10:37:10;;;;;;;0.22;0.22;;;;;;;22.89;61.12;101411.69;5006486;28;20068;-85
2021/08/12 10:39:44;;;;;;;0.22;0.22;;;;;;;23.17;59.43;101411.00;5013603;28;20057;-87
2021/08/12 10:42:18;;;;;;;0.30;0.30;;;;;;;23.21;58.16;101404.41;5007408;28;20064;-86
2021/08/12 10:44:49;;;;;;;0.70;0.40;;;;;;;23.24;58.53;101414.00;5008755;28;20046;-85
2021/08/12 10:47:42;;;;;;;0.20;0.20;;;;;;;23.08;60.04;101416.66;5003885;28;20046;-86
2021/08/12 10:50:41;;;;;;;0.30;0.30;;;;;;;23.10;60.14;101394.91;5022379;28;20053;-87
2021/08/12 10:53:20;;;;;;;1.65;0.35;;;;;;;23.10;60.37;101381.84;5027653;28;20045;-85
2021/08/12 10:56:16;;;;;;;0.77;0.30;;;;;;;23.32;58.63;101407.50;5029645;28;20050;-85
2021/08/12 10:59:05;;;;;;;0.65;0.30;;;;;;;23.38;59.33;101406.13;5029501;28;20042;-86
2021/08/12 11:01:41;;;;;;;0.30;0.30;;;;;;;23.44;59.80;101412.25;5023295;28;20140;-86
2021/08/12 11:04:14;;;;;;;0.50;0.30;;;;;;;23.51;62.54;101409.69;5023225;28;20045;-87
2021/08/12 11:06:47;;;;;;;0.30;0.30;;;;;;;23.48;57.10;101407.59;5018099;28;20048;-85
2021/08/12 11:09:17;;;;;;;0.30;0.20;;;;;;;23.56;58.26;101403.88;5025930;28;20041;-86
2021/08/12 11:12:00;;;;;;;0.20;0.20;;;;;;;23.70;57.66;101399.91;5023039;28;20037;-86
2021/08/12 11:14:58;;;;;;;0.20;0.20;;;;;;;23.65;58.14;101394.59;5022394;28;20049;-85
2021/08/12 11:17:54;;;;;;;0.30;0.30;;;;;;;23.86;59.96;101397.97;5028632;28;20053;-85
2021/08/12 11:20:32;;;;;;;1.20;0.30;;;;;;;24.01;59.50;101393.66;5020319;28;20069;-86
2021/08/12 11:23:40;;;;;;;0.22;0.20;;;;;;;23.99;58.86;101384.88;5018027;28;20061;-87
2021/08/12 11:26:09;;;;;;;0.20;0.20;;;;;;;24.14;58.01;101390.81;5037346;28;20410;-85
2021/08/12 11:28:51;;;;;;;0.30;0.30;;;;;;;24.09;56.03;101387.13;5023485;28;20050;-86
2021/08/12 11:31:53;;;;;;;0.20;0.20;;;;;;;24.21;58.99;101389.06;5022382;28;20360;-86
2021/08/12 11:34:32;;;;;;;0.22;0.22;;;;;;;24.20;55.79;101384.66;5029936;28;20057;-87
2021/08/12 11:37:16;;;;;;;0.20;0.20;;;;;;;24.42;55.59;101379.66;5023287;28;20569;-86
2021/08/12 11:39:53;;;;;;;0.30;0.30;;;;;;;24.43;58.03;101381.25;5025540;28;20042;-87
2021/08/12 11:42:31;;;;;;;0.20;0.20;;;;;;;24.37;54.77;101380.72;5029521;28;20064;-86
2021/08/12 11:45:06;;;;;;;0.47;0.20;;;;;;;24.55;56.99;101377.59;5025934;28;20053;-86
2021/08/12 11:47:42;;;;;;;0.30;0.30;;;;;;;24.56;56.80;101377.22;5034206;28;20594;-87
2021/08/12 11:50:13;;;;;;;0.30;0.30;;;;;;;24.72;57.27;101371.69;5029205;28;20052;-85
2021/08/12 11:52:47;;;;;;;0.40;0.30;;;;;;;24.60;58.31;101361.44;5025860;28;20049;-86
2021/08/12 11:55:23;;;;;;;0.52;0.38;;;;;;;24.71;56.24;101364.50;5023959;28;20061;-85
2021/08/12 11:57:58;;;;;;;0.20;0.20;;;;;;;24.56;58.84;101359.75;5016608;28;20434;-86
2021/08/12 12:00:32;;;;;;;0.20;0.20;;;;;;;24.72;57.41;101374.47;5025234;28;20064;-86
2021/08/12 12:03:07;;;;;;;0.13;0.13;;;;;;;24.90;55.73;101371.31;5028551;28;20056;-86